createdAt,value
2023-04-02T00:01:47.692Z,2.89
2023-04-02T00:04:23.082Z,2.84
2023-04-02T00:06:56.955Z,2.83
2023-04-02T00:09:34.274Z,2.77
2023-04-02T00:12:16.891Z,2.75
2023-04-02T00:14:51.575Z,2.79
2023-04-02T00:17:22.601Z,2.79
2023-04-02T00:19:55.043Z,2.74
2023-04-02T00:22:27.993Z,2.77
2023-04-02T00:24:58.071Z,2.83
2023-04-02T00:27:28.603Z,2.84
2023-04-02T00:29:58.516Z,2.73
2023-04-02T00:32:29.563Z,2.68
2023-04-02T00:34:59.485Z,2.75
2023-04-02T00:37:38.694Z,2.73
2023-04-02T00:40:15.361Z,2.73
2023-04-02T00:42:46.453Z,2.70
2023-04-02T00:45:23.001Z,2.70
2023-04-02T00:47:52.415Z,2.67
2023-04-02T00:50:28.929Z,2.69
2023-04-02T00:52:59.853Z,2.71
2023-04-02T00:55:36.097Z,2.60
2023-04-02T00:58:18.321Z,2.62
2023-04-02T01:00:50.864Z,2.66
2023-04-02T01:03:36.320Z,2.63
2023-04-02T01:06:11.452Z,2.66
2023-04-02T01:08:58.685Z,2.65
2023-04-02T01:11:39.994Z,2.63
2023-04-02T01:14:19.241Z,2.61
2023-04-02T01:16:54.144Z,2.61
2023-04-02T01:19:52.547Z,2.64
2023-04-02T01:22:30.804Z,2.64
2023-04-02T01:24:59.520Z,2.57
2023-04-02T01:27:31.084Z,2.62
2023-04-02T01:30:03.275Z,2.61
2023-04-02T01:32:32.558Z,2.65
2023-04-02T01:35:01.367Z,2.62
2023-04-02T01:37:39.761Z,2.63
2023-04-02T01:40:25.213Z,2.65
2023-04-02T01:43:04.731Z,2.59
2023-04-02T01:45:35.804Z,2.59
2023-04-02T01:48:08.019Z,2.60
2023-04-02T01:50:38.610Z,2.61
2023-04-02T01:53:09.591Z,2.55
2023-04-02T01:55:42.829Z,2.58
2023-04-02T01:58:14.103Z,2.55
2023-04-02T02:00:49.072Z,2.49
2023-04-02T02:03:18.441Z,2.48
2023-04-02T02:05:47.692Z,2.51
2023-04-02T02:08:30.059Z,2.52
2023-04-02T02:10:59.035Z,2.51
2023-04-02T02:13:27.625Z,2.49
2023-04-02T02:16:00.388Z,2.49
2023-04-02T02:18:29.939Z,2.49
2023-04-02T02:21:01.192Z,2.47
2023-04-02T02:23:30.930Z,2.45
2023-04-02T02:25:59.836Z,2.46
2023-04-02T02:28:31.770Z,2.47
2023-04-02T02:31:04.546Z,2.45
2023-04-02T02:33:38.043Z,2.40
2023-04-02T02:36:11.418Z,2.39
2023-04-02T02:38:48.255Z,2.45
2023-04-02T02:41:22.647Z,2.43
2023-04-02T02:43:54.223Z,2.40
2023-04-02T02:46:26.455Z,2.42
2023-04-02T02:48:57.019Z,2.44
2023-04-02T02:51:30.056Z,2.44
2023-04-02T02:54:04.014Z,2.36
2023-04-02T02:56:38.069Z,2.31
2023-04-02T02:59:12.207Z,2.33
2023-04-02T03:01:42.746Z,2.30
2023-04-02T03:04:11.932Z,2.34
2023-04-02T03:06:41.836Z,2.34
2023-04-02T03:09:20.464Z,2.40
2023-04-02T03:11:54.614Z,2.42
2023-04-02T03:14:29.946Z,2.36
2023-04-02T03:17:07.391Z,2.39
2023-04-02T03:19:44.854Z,2.42
2023-04-02T03:22:18.319Z,2.43
2023-04-02T03:24:54.655Z,2.47
2023-04-02T03:27:27.410Z,2.46
2023-04-02T03:30:06.447Z,2.47
2023-04-02T03:32:39.526Z,2.49
2023-04-02T03:35:21.628Z,2.49
2023-04-02T03:37:56.644Z,2.45
2023-04-02T03:40:30.216Z,2.48
2023-04-02T03:43:04.160Z,2.49
2023-04-02T03:45:37.493Z,2.43
2023-04-02T03:48:14.536Z,2.42
2023-04-02T03:50:48.573Z,2.46
2023-04-02T03:53:18.368Z,2.49
2023-04-02T03:55:46.842Z,2.48
2023-04-02T03:58:21.960Z,2.51
2023-04-02T04:00:56.303Z,2.48
2023-04-02T04:03:31.780Z,2.45
2023-04-02T04:06:03.078Z,2.48
2023-04-02T04:08:38.076Z,2.43
2023-04-02T04:11:12.116Z,2.44
2023-04-02T04:13:45.565Z,2.43
2023-04-02T04:16:18.248Z,2.45
2023-04-02T04:18:57.106Z,2.48
2023-04-02T04:21:31.326Z,2.52
2023-04-02T04:24:04.541Z,2.53
2023-04-02T04:26:40.539Z,2.52
2023-04-02T04:29:20.399Z,2.57
2023-04-02T04:31:50.689Z,2.56
2023-04-02T04:34:25.084Z,2.56
2023-04-02T04:36:55.070Z,2.57
2023-04-02T04:39:29.933Z,2.56
2023-04-02T04:42:02.023Z,2.57
2023-04-02T04:44:41.031Z,2.57
2023-04-02T04:47:15.500Z,2.60
2023-04-02T04:49:51.192Z,2.64
2023-04-02T04:52:23.324Z,2.63
2023-04-02T04:54:51.767Z,2.61
2023-04-02T04:57:28.933Z,2.56
2023-04-02T05:00:06.773Z,2.60
2023-04-02T05:02:40.998Z,2.60
2023-04-02T05:05:21.168Z,2.63
2023-04-02T05:07:54.143Z,2.64
2023-04-02T05:10:31.868Z,2.68
2023-04-02T05:13:05.587Z,2.70
2023-04-02T05:15:40.125Z,2.71
2023-04-02T05:18:20.718Z,2.68
2023-04-02T05:20:53.958Z,2.67
2023-04-02T05:23:27.081Z,2.65
2023-04-02T05:26:00.391Z,2.65
2023-04-02T05:28:35.600Z,2.70
2023-04-02T05:31:08.297Z,2.75
2023-04-02T05:33:38.314Z,2.73
2023-04-02T05:36:11.665Z,2.76
2023-04-02T05:38:46.340Z,2.76
2023-04-02T05:41:21.958Z,2.76
2023-04-02T05:43:56.427Z,2.72
2023-04-02T05:46:29.274Z,2.75
2023-04-02T05:49:00.357Z,2.77
2023-04-02T05:51:37.800Z,2.80
2023-04-02T05:54:15.725Z,2.82
2023-04-02T05:56:48.145Z,2.89
2023-04-02T05:59:22.801Z,2.92
2023-04-02T06:01:55.742Z,2.95
2023-04-02T06:04:30.402Z,2.90
2023-04-02T06:07:02.652Z,2.92
2023-04-02T06:09:38.902Z,2.92
2023-04-02T06:12:31.185Z,2.94
2023-04-02T06:14:59.791Z,2.93
2023-04-02T06:17:28.757Z,2.96
2023-04-02T06:19:59.175Z,3.01
2023-04-02T06:22:37.604Z,3.01
2023-04-02T06:25:12.791Z,3.10
2023-04-02T06:27:43.042Z,3.14
2023-04-02T06:30:18.348Z,3.12
2023-04-02T06:32:46.746Z,3.11
2023-04-02T06:35:16.451Z,3.14
2023-04-02T06:37:49.110Z,3.17
2023-04-02T06:40:33.086Z,3.23
2023-04-02T06:43:04.452Z,3.28
2023-04-02T06:45:38.563Z,3.27
2023-04-02T06:48:13.870Z,3.31
2023-04-02T06:50:46.996Z,3.36
2023-04-02T06:53:23.218Z,3.41
2023-04-02T06:55:53.893Z,3.38
2023-04-02T06:58:22.371Z,3.36
2023-04-02T07:00:52.097Z,3.35
2023-04-02T07:03:24.686Z,3.32
2023-04-02T07:05:53.027Z,3.38
2023-04-02T07:08:22.939Z,3.45
2023-04-02T07:10:51.489Z,3.57
2023-04-02T07:13:22.056Z,3.65
2023-04-02T07:15:53.602Z,3.63
2023-04-02T07:18:28.047Z,3.67
2023-04-02T07:20:57.537Z,3.63
2023-04-02T07:23:27.655Z,3.65
2023-04-02T07:25:57.010Z,3.70
2023-04-02T07:28:25.972Z,3.66
2023-04-02T07:30:54.678Z,3.59
2023-04-02T07:33:25.936Z,3.59
2023-04-02T07:35:56.058Z,3.65
2023-04-02T07:38:24.657Z,3.61
2023-04-02T07:40:54.494Z,3.61
2023-04-02T07:43:23.199Z,3.69
2023-04-02T07:45:51.677Z,3.85
2023-04-02T07:48:20.009Z,3.95
2023-04-02T07:50:48.410Z,4.07
2023-04-02T07:53:29.728Z,4.13
2023-04-02T07:56:02.905Z,4.07
2023-04-02T07:58:33.061Z,4.08
2023-04-02T08:01:03.831Z,4.14
2023-04-02T08:03:32.876Z,4.15
2023-04-02T08:06:01.329Z,4.16
2023-04-02T08:08:29.798Z,4.16
2023-04-02T08:10:59.525Z,4.13
2023-04-02T08:13:27.869Z,4.16
2023-04-02T08:15:59.559Z,4.15
2023-04-02T08:18:28.269Z,4.23
2023-04-02T08:20:56.962Z,4.15
2023-04-02T08:23:27.068Z,4.15
2023-04-02T08:25:56.344Z,4.20
2023-04-02T08:28:26.256Z,4.16
2023-04-02T08:30:54.673Z,4.18
2023-04-02T08:33:23.045Z,4.19
2023-04-02T08:35:52.164Z,4.23
2023-04-02T08:38:22.385Z,4.32
2023-04-02T08:40:52.788Z,4.28
2023-04-02T08:43:52.822Z,4.26
2023-04-02T08:46:27.846Z,4.28
2023-04-02T08:49:00.621Z,4.27
2023-04-02T08:51:33.567Z,4.21
2023-04-02T08:54:05.820Z,4.26
2023-04-02T08:56:40.550Z,4.32
2023-04-02T08:59:23.441Z,4.38
2023-04-02T09:02:01.033Z,4.45
2023-04-02T09:04:30.044Z,4.39
2023-04-02T09:07:00.621Z,4.38
2023-04-02T09:09:29.232Z,4.39
2023-04-02T09:12:01.305Z,4.50
2023-04-02T09:14:42.547Z,4.55
2023-04-02T09:17:19.165Z,4.62
2023-04-02T09:19:55.510Z,4.88
2023-04-02T09:22:26.442Z,5.09
2023-04-02T09:24:55.479Z,5.29
2023-04-02T09:27:26.648Z,5.44
2023-04-02T09:30:00.925Z,5.57
2023-04-02T09:32:37.456Z,5.69
2023-04-02T09:35:24.566Z,5.56
2023-04-02T09:38:20.563Z,5.80
2023-04-02T09:40:52.429Z,5.85
2023-04-02T09:43:22.554Z,5.95
2023-04-02T09:46:01.283Z,5.87
2023-04-02T09:48:33.271Z,5.93
2023-04-02T09:51:07.676Z,6.15
2023-04-02T09:53:36.868Z,6.35
2023-04-02T09:56:14.304Z,6.36
2023-04-02T09:58:45.124Z,6.51
2023-04-02T10:01:30.373Z,6.56
2023-04-02T10:04:00.233Z,6.73
2023-04-02T10:06:30.310Z,6.87
2023-04-02T10:08:59.294Z,7.02
2023-04-02T10:11:36.544Z,7.09
2023-04-02T10:14:19.629Z,7.26
2023-04-02T10:16:53.352Z,7.27
2023-04-02T10:19:32.539Z,7.22
2023-04-02T10:22:06.300Z,6.82
2023-04-02T10:24:34.692Z,6.73
2023-04-02T10:27:17.414Z,6.48
2023-04-02T10:30:04.002Z,6.49
2023-04-02T10:32:40.658Z,6.54
2023-04-02T10:35:15.790Z,6.43
2023-04-02T10:38:01.241Z,6.34
2023-04-02T10:40:34.185Z,6.25
2023-04-02T10:43:27.029Z,6.15
2023-04-02T10:46:01.439Z,6.00
2023-04-02T10:48:35.012Z,5.97
2023-04-02T10:51:07.795Z,5.97
2023-04-02T10:53:47.783Z,5.90
2023-04-02T10:56:16.522Z,5.93
2023-04-02T10:58:56.865Z,5.91
2023-04-02T11:01:29.261Z,6.02
2023-04-02T11:04:02.537Z,6.17
2023-04-02T11:06:33.961Z,6.16
2023-04-02T11:09:05.973Z,6.06
2023-04-02T11:11:39.756Z,6.11
2023-04-02T11:14:15.857Z,6.26
2023-04-02T11:16:45.176Z,6.40
2023-04-02T11:19:27.869Z,6.33
2023-04-02T11:22:01.299Z,6.22
2023-04-02T11:24:43.424Z,6.12
2023-04-02T11:27:19.645Z,6.15
2023-04-02T11:29:50.085Z,6.13
2023-04-02T11:32:32.350Z,6.01
2023-04-02T11:35:40.943Z,6.02
2023-04-02T11:38:47.320Z,6.06
2023-04-02T11:41:35.788Z,6.30
2023-04-02T11:44:04.743Z,6.78
2023-04-02T11:46:51.585Z,7.04
2023-04-02T11:49:38.249Z,7.22
2023-04-02T11:52:28.016Z,7.09
2023-04-02T11:54:59.551Z,7.39
2023-04-02T11:57:45.081Z,7.55
2023-04-02T12:00:24.857Z,8.33
2023-04-02T12:03:06.911Z,8.88
2023-04-02T12:05:43.341Z,8.89
2023-04-02T12:08:31.374Z,8.97
2023-04-02T12:11:01.620Z,8.72
2023-04-02T12:13:51.900Z,8.50
2023-04-02T12:16:20.869Z,8.18
2023-04-02T12:18:53.982Z,7.87
2023-04-02T12:21:25.989Z,7.70
2023-04-02T12:23:58.332Z,7.66
2023-04-02T12:26:37.754Z,7.53
2023-04-02T12:29:16.672Z,7.46
2023-04-02T12:31:47.647Z,7.44
2023-04-02T12:34:17.739Z,7.30
2023-04-02T12:36:54.074Z,7.38
2023-04-02T12:39:26.015Z,7.67
2023-04-02T12:41:57.078Z,8.01
2023-04-02T12:44:28.726Z,8.04
2023-04-02T12:46:59.125Z,8.10
2023-04-02T12:49:36.855Z,7.92
2023-04-02T12:52:07.260Z,7.75
2023-04-02T12:54:44.681Z,7.57
2023-04-02T12:57:39.846Z,7.51
2023-04-02T13:00:31.902Z,7.52
2023-04-02T13:03:03.164Z,7.89
2023-04-02T13:05:37.236Z,8.75
2023-04-02T13:08:06.801Z,8.76
2023-04-02T13:10:37.186Z,8.63
2023-04-02T13:13:06.489Z,8.88
2023-04-02T13:15:37.081Z,8.65
2023-04-02T13:18:08.414Z,8.49
2023-04-02T13:20:39.174Z,8.27
2023-04-02T13:23:31.770Z,8.38
2023-04-02T13:26:03.695Z,8.37
2023-04-02T13:28:32.067Z,8.32
2023-04-02T13:31:00.656Z,8.25
2023-04-02T13:33:29.002Z,8.10
2023-04-02T13:35:57.432Z,8.38
2023-04-02T13:38:26.316Z,8.71
2023-04-02T13:40:54.975Z,9.24
2023-04-02T13:43:25.101Z,9.50
2023-04-02T13:45:57.506Z,9.18
2023-04-02T13:48:28.781Z,8.99
2023-04-02T13:50:57.405Z,8.66
2023-04-02T13:53:31.594Z,8.57
2023-04-02T13:56:00.858Z,8.37
2023-04-02T13:58:30.789Z,8.42
2023-04-02T14:00:59.209Z,8.24
2023-04-02T14:03:28.136Z,8.17
2023-04-02T14:06:04.366Z,8.07
2023-04-02T14:08:48.252Z,7.79
2023-04-02T14:11:28.951Z,7.76
2023-04-02T14:14:18.993Z,7.84
2023-04-02T14:16:56.377Z,8.61
2023-04-02T14:19:55.983Z,8.57
2023-04-02T14:22:37.073Z,8.19
2023-04-02T14:25:16.146Z,7.91
2023-04-02T14:27:50.744Z,7.72
2023-04-02T14:30:28.253Z,8.42
2023-04-02T14:33:05.829Z,9.08
2023-04-02T14:35:38.305Z,9.14
2023-04-02T14:38:15.122Z,8.85
2023-04-02T14:40:49.660Z,8.51
2023-04-02T14:43:24.336Z,7.98
2023-04-02T14:45:59.682Z,7.54
2023-04-02T14:48:39.978Z,7.49
2023-04-02T14:51:16.985Z,8.07
2023-04-02T14:53:55.703Z,8.04
2023-04-02T14:56:26.661Z,7.79
2023-04-02T14:59:06.252Z,7.44
2023-04-02T15:01:41.948Z,7.35
2023-04-02T15:04:18.664Z,7.31
2023-04-02T15:06:51.372Z,7.18
2023-04-02T15:09:25.068Z,7.09
2023-04-02T15:11:58.099Z,7.16
2023-04-02T15:14:32.774Z,7.40
2023-04-02T15:17:02.927Z,7.22
2023-04-02T15:19:31.562Z,7.25
2023-04-02T15:22:20.585Z,7.28
2023-04-02T15:24:59.318Z,7.16
2023-04-02T15:27:44.848Z,6.96
2023-04-02T15:30:19.276Z,7.02
2023-04-02T15:32:49.799Z,7.21
2023-04-02T15:35:31.620Z,7.19
2023-04-02T15:38:06.947Z,7.06
2023-04-02T15:40:52.571Z,6.95
2023-04-02T15:43:27.165Z,6.92
2023-04-02T15:46:06.472Z,7.13
2023-04-02T15:48:52.557Z,7.35
2023-04-02T15:51:34.938Z,7.46
2023-04-02T15:54:13.919Z,7.03
2023-04-02T15:56:53.821Z,6.77
2023-04-02T16:00:04.017Z,6.53
2023-04-02T16:02:52.017Z,6.64
2023-04-02T16:05:33.904Z,6.79
2023-04-02T16:08:18.114Z,7.10
2023-04-02T16:10:46.852Z,7.22
2023-04-02T16:13:20.390Z,7.21
2023-04-02T16:15:55.059Z,7.08
2023-04-02T16:18:34.229Z,6.65
2023-04-02T16:21:04.731Z,6.55
2023-04-02T16:23:36.185Z,6.30
2023-04-02T16:26:43.844Z,6.09
2023-04-02T16:29:25.123Z,6.08
2023-04-02T16:32:00.049Z,6.20
2023-04-02T16:34:40.487Z,6.39
2023-04-02T16:37:17.543Z,6.37
2023-04-02T16:39:53.473Z,6.29
2023-04-02T16:42:35.381Z,6.10
2023-04-02T16:45:19.154Z,6.04
2023-04-02T16:47:56.821Z,5.93
2023-04-02T16:50:35.545Z,5.83
2023-04-02T16:53:19.457Z,5.83
2023-04-02T16:55:58.892Z,5.67
2023-04-02T16:58:43.573Z,5.64
2023-04-02T17:01:16.909Z,5.57
2023-04-02T17:03:59.849Z,5.52
2023-04-02T17:06:41.421Z,5.54
2023-04-02T17:09:16.762Z,5.52
2023-04-02T17:11:49.995Z,5.51
2023-04-02T17:14:30.617Z,5.46
2023-04-02T17:17:03.646Z,5.50
2023-04-02T17:19:33.558Z,5.45
2023-04-02T17:22:04.492Z,5.33
2023-04-02T17:24:39.918Z,5.34
2023-04-02T17:27:18.430Z,5.23
2023-04-02T17:29:50.103Z,5.19
2023-04-02T17:32:23.835Z,5.17
2023-04-02T17:34:52.266Z,5.19
2023-04-02T17:37:30.844Z,5.10
2023-04-02T17:40:12.908Z,5.04
2023-04-02T17:42:49.685Z,4.98
2023-04-02T17:45:24.857Z,4.96
2023-04-02T17:48:02.495Z,4.86
2023-04-02T17:50:39.498Z,4.77
2023-04-02T17:53:19.116Z,4.71
2023-04-02T17:55:59.039Z,4.65
2023-04-02T17:58:50.210Z,4.61
2023-04-02T18:01:26.098Z,4.50
2023-04-02T18:04:05.681Z,4.45
2023-04-02T18:06:40.514Z,4.33
2023-04-02T18:09:39.273Z,4.32
2023-04-02T18:12:20.497Z,4.21
2023-04-02T18:15:03.670Z,4.20
2023-04-02T18:17:39.969Z,4.12
2023-04-02T18:20:24.375Z,4.12
2023-04-02T18:23:00.269Z,4.11
2023-04-02T18:25:41.015Z,4.06
2023-04-02T18:28:28.064Z,4.00
2023-04-02T18:31:02.563Z,3.95
2023-04-02T18:33:57.081Z,3.84
2023-04-02T18:36:38.239Z,3.76
2023-04-02T18:39:15.582Z,3.76
2023-04-02T18:41:51.529Z,3.71
2023-04-02T18:44:38.709Z,3.64
2023-04-02T18:47:17.264Z,3.66
2023-04-02T18:49:51.800Z,3.62
2023-04-02T18:52:21.369Z,3.54
2023-04-02T18:54:53.590Z,3.48
2023-04-02T18:57:27.258Z,3.45
2023-04-02T19:00:04.450Z,3.42
2023-04-02T19:02:41.567Z,3.42
2023-04-02T19:05:21.313Z,3.38
2023-04-02T19:07:53.130Z,3.31
2023-04-02T19:10:28.439Z,3.30
2023-04-02T19:12:57.101Z,3.22
2023-04-02T19:15:37.315Z,3.20
2023-04-02T19:18:17.189Z,3.19
2023-04-02T19:20:52.447Z,3.21
2023-04-02T19:23:38.139Z,3.15
2023-04-02T19:26:07.893Z,3.17
2023-04-02T19:28:43.646Z,3.14
2023-04-02T19:31:36.749Z,3.09
2023-04-02T19:34:16.286Z,3.04
2023-04-02T19:36:49.258Z,2.99
2023-04-02T19:39:47.972Z,2.96
2023-04-02T19:42:31.431Z,2.88
2023-04-02T19:45:00.276Z,2.88
2023-04-02T19:47:30.181Z,2.82
2023-04-02T19:49:58.829Z,2.81
2023-04-02T19:52:27.326Z,2.76
2023-04-02T19:54:55.653Z,2.76
2023-04-02T19:57:24.009Z,2.72
2023-04-02T19:59:52.375Z,2.73
2023-04-02T20:02:20.944Z,2.67
2023-04-02T20:04:50.779Z,2.63
2023-04-02T20:07:19.184Z,2.61
2023-04-02T20:09:47.535Z,2.52
2023-04-02T20:12:16.228Z,2.49
2023-04-02T20:14:44.582Z,2.43
2023-04-02T20:17:13.001Z,2.40
2023-04-02T20:19:41.353Z,2.39
2023-04-02T20:22:11.072Z,2.39
2023-04-02T20:24:40.962Z,2.36
2023-04-02T20:27:09.402Z,2.35
2023-04-02T20:29:37.753Z,2.34
2023-04-02T20:32:06.328Z,2.31
2023-04-02T20:34:34.700Z,2.26
2023-04-02T20:37:03.238Z,2.23
2023-04-02T20:39:33.025Z,2.17
2023-04-02T20:42:03.351Z,2.15
2023-04-02T20:44:31.885Z,2.13
2023-04-02T20:47:00.346Z,2.09
2023-04-02T20:49:28.696Z,2.08
2023-04-02T20:51:57.354Z,2.08
2023-04-02T20:54:25.702Z,2.05
2023-04-02T20:56:55.541Z,1.99
2023-04-02T20:59:23.891Z,2.03
2023-04-02T21:01:52.564Z,1.98
2023-04-02T21:04:22.000Z,1.99
2023-04-02T21:06:50.412Z,1.98
2023-04-02T21:09:21.270Z,1.95
2023-04-02T21:11:49.910Z,1.92
2023-04-02T21:14:19.874Z,1.90
2023-04-02T21:16:48.219Z,1.89
2023-04-02T21:19:16.983Z,1.85
2023-04-02T21:21:45.402Z,1.77
2023-04-02T21:24:14.210Z,1.75
2023-04-02T21:26:42.812Z,1.79
2023-04-02T21:29:12.389Z,1.75
2023-04-02T21:31:42.743Z,1.71
2023-04-02T21:34:14.991Z,1.68
2023-04-02T21:36:45.419Z,1.63
2023-04-02T21:39:18.344Z,1.59
2023-04-02T21:41:50.054Z,1.58
2023-04-02T21:44:20.542Z,1.53
2023-04-02T21:46:52.154Z,1.50
2023-04-02T21:49:23.190Z,1.45
2023-04-02T21:51:52.581Z,1.44
2023-04-02T21:54:21.061Z,1.41
2023-04-02T21:56:50.262Z,1.40
2023-04-02T21:59:19.433Z,1.38
2023-04-02T22:01:51.196Z,1.35
2023-04-02T22:04:21.207Z,1.32
2023-04-02T22:06:50.766Z,1.30
2023-04-02T22:09:21.126Z,1.29
2023-04-02T22:11:51.206Z,1.30
2023-04-02T22:14:19.668Z,1.26
2023-04-02T22:16:48.117Z,1.21
2023-04-02T22:19:18.476Z,1.25
2023-04-02T22:21:47.405Z,1.21
2023-04-02T22:24:18.755Z,1.23
2023-04-02T22:26:47.726Z,1.18
2023-04-02T22:29:16.334Z,1.16
2023-04-02T22:31:44.896Z,1.11
2023-04-02T22:34:13.677Z,1.11
2023-04-02T22:36:43.415Z,1.11
2023-04-02T22:39:12.635Z,1.11
2023-04-02T22:41:41.013Z,1.09
2023-04-02T22:44:14.607Z,1.10
2023-04-02T22:46:43.162Z,1.07
2023-04-02T22:49:12.405Z,1.06
2023-04-02T22:51:40.888Z,1.10
2023-04-02T22:54:10.587Z,1.08
2023-04-02T22:56:39.061Z,1.05
2023-04-02T22:59:07.390Z,1.02
2023-04-02T23:01:36.867Z,1.01
2023-04-02T23:04:05.953Z,1.00
2023-04-02T23:06:34.435Z,1.03
2023-04-02T23:09:02.911Z,1.04
2023-04-02T23:11:32.623Z,0.99
2023-04-02T23:14:01.595Z,1.00
2023-04-02T23:16:30.371Z,1.00
2023-04-02T23:18:59.987Z,1.00
2023-04-02T23:21:28.725Z,1.00
2023-04-02T23:23:57.042Z,0.96
2023-04-02T23:26:29.162Z,0.97
2023-04-02T23:29:00.593Z,0.92
2023-04-02T23:31:29.209Z,0.96
2023-04-02T23:33:57.659Z,0.97
2023-04-02T23:36:27.813Z,0.95
2023-04-02T23:38:57.717Z,1.00
2023-04-02T23:41:27.722Z,0.96
2023-04-02T23:43:56.990Z,1.01
2023-04-02T23:46:27.409Z,1.01
2023-04-02T23:48:56.809Z,0.97
2023-04-02T23:51:26.646Z,0.97
2023-04-02T23:53:56.545Z,0.98
2023-04-02T23:56:25.862Z,0.97
2023-04-02T23:58:54.251Z,0.93
